Time;durP1;ratioP1;P1;durP2;ratioP2;P2;SDS_P1;SDS_P2;PMS_P1;PMS_P2;Temp;Humidity;BMP_temperature;BMP_pressure;BME280_temperature;BME280_humidity;BME280_pressure;Samples;Min_cycle;Max_cycle;Signal;HPM_P1;HPM_P2
2023/08/03 00:00:24;;;;;;;9.80;1.90;;;;;;;26.08;83.27;99545.03;5090563;28;20209;-73
2023/08/03 00:02:52;;;;;;;7.90;1.70;;;;;;;26.00;84.59;99545.50;5090376;28;20641;-73
2023/08/03 00:05:19;;;;;;;8.23;1.85;;;;;;;25.89;85.71;99547.03;5075233;28;20194;-73
2023/08/03 00:07:46;;;;;;;7.45;1.77;;;;;;;25.90;85.07;99544.28;5090298;28;20273;-73
2023/08/03 00:10:13;;;;;;;9.70;1.98;;;;;;;25.76;84.25;99509.66;5090352;28;20573;-72
2023/08/03 00:12:40;;;;;;;6.25;1.55;;;;;;;25.86;84.40;99553.41;5090521;28;20578;-71
2023/08/03 00:15:08;;;;;;;7.63;1.80;;;;;;;25.76;85.62;99546.00;5090578;28;20208;-72
2023/08/03 00:17:35;;;;;;;7.63;1.75;;;;;;;25.63;86.75;99532.56;5090619;28;20230;-72
2023/08/03 00:20:04;;;;;;;6.03;1.80;;;;;;;25.65;88.27;99550.09;5054941;28;20190;-72
2023/08/03 00:22:31;;;;;;;7.50;2.00;;;;;;;25.42;90.68;99525.72;5090533;28;20198;-73
2023/08/03 00:24:58;;;;;;;5.22;1.33;;;;;;;25.48;98.81;99546.63;5090144;28;20595;-72
2023/08/03 00:27:24;;;;;;;7.55;1.95;;;;;;;25.47;100.00;99544.94;5090549;28;20214;-71
2023/08/03 00:29:51;;;;;;;6.15;1.52;;;;;;;25.43;100.00;99543.38;5090356;28;20205;-72
2023/08/03 00:32:18;;;;;;;7.35;1.63;;;;;;;25.39;100.00;99541.84;5092341;28;20271;-73
2023/08/03 00:34:45;;;;;;;6.38;1.58;;;;;;;25.31;100.00;99544.03;5094131;28;20206;-72
2023/08/03 00:37:14;;;;;;;8.13;1.70;;;;;;;25.29;99.35;99527.34;5094244;28;20739;-72
2023/08/03 00:39:41;;;;;;;5.10;1.35;;;;;;;25.41;100.00;99537.28;5093948;28;20226;-72
2023/08/03 00:42:08;;;;;;;9.25;1.95;;;;;;;25.38;100.00;99532.16;5093724;28;20194;-72
2023/08/03 00:44:35;;;;;;;7.57;1.70;;;;;;;25.28;100.00;99529.13;5093949;28;20198;-72
2023/08/03 00:47:02;;;;;;;9.35;1.92;;;;;;;25.11;100.00;99506.13;5093649;28;20664;-73
2023/08/03 00:49:29;;;;;;;8.43;1.83;;;;;;;25.18;100.00;99526.09;5093710;28;20205;-73
2023/08/03 00:51:56;;;;;;;10.18;1.95;;;;;;;25.08;100.00;99530.19;5093862;28;20198;-72
2023/08/03 00:54:24;;;;;;;8.52;1.75;;;;;;;25.01;100.00;99526.16;5093916;28;20248;-72
2023/08/03 00:56:51;;;;;;;8.63;1.83;;;;;;;24.85;100.00;99509.34;5094028;28;20575;-73
2023/08/03 00:59:18;;;;;;;9.35;1.92;;;;;;;25.00;100.00;99518.28;5092461;28;20794;-73
2023/08/03 01:01:45;;;;;;;6.97;1.70;;;;;;;24.95;100.00;99515.88;5093255;28;20209;-72
2023/08/03 01:04:12;;;;;;;8.82;1.80;;;;;;;24.89;100.00;99508.25;5093167;28;20205;-72
2023/08/03 01:06:39;;;;;;;8.15;1.73;;;;;;;24.94;100.00;99524.75;5093352;28;20221;-72
2023/08/03 01:09:06;;;;;;;6.18;1.42;;;;;;;24.83;100.00;99513.84;5093571;28;20202;-73
2023/08/03 01:11:34;;;;;;;8.88;1.83;;;;;;;24.78;100.00;99499.97;5093730;28;20198;-71
2023/08/03 01:14:01;;;;;;;9.38;1.95;;;;;;;24.73;100.00;99514.38;5092961;28;20539;-71
2023/08/03 01:16:29;;;;;;;8.60;1.80;;;;;;;24.79;100.00;99514.06;5093364;28;20201;-71
2023/08/03 01:18:56;;;;;;;9.25;2.13;;;;;;;24.90;100.00;99520.53;5093016;28;20234;-72
2023/08/03 01:21:23;;;;;;;8.73;1.88;;;;;;;24.69;100.00;99495.97;5092755;28;20210;-73
2023/08/03 01:23:52;;;;;;;7.07;1.63;;;;;;;24.78;100.00;99513.22;5092904;28;20598;-80
2023/08/03 01:26:18;;;;;;;10.10;2.10;;;;;;;24.68;100.00;99517.28;5094448;28;20205;-72
2023/08/03 01:28:45;;;;;;;6.93;1.65;;;;;;;24.61;100.00;99510.59;5093104;28;20194;-73
2023/08/03 01:31:12;;;;;;;6.68;2.03;;;;;;;24.46;100.00;99501.63;5092806;28;20205;-72
2023/08/03 01:33:39;;;;;;;4.97;1.30;;;;;;;24.55;100.00;99525.00;5092911;28;20247;-71
2023/08/03 01:36:06;;;;;;;5.22;1.35;;;;;;;24.54;100.00;99530.38;5092735;28;20202;-72
2023/08/03 01:38:33;;;;;;;5.75;1.40;;;;;;;24.62;100.00;99533.47;5092773;28;20218;-72
2023/08/03 01:41:01;;;;;;;6.03;1.52;;;;;;;24.74;100.00;99530.22;5092959;28;20199;-72
2023/08/03 01:43:28;;;;;;;5.07;1.38;;;;;;;24.57;100.00;99509.88;5092929;28;20194;-72
2023/08/03 01:45:55;;;;;;;5.28;1.52;;;;;;;24.63;100.00;99524.59;5057395;28;20210;-72
2023/08/03 01:48:21;;;;;;;5.72;1.50;;;;;;;24.69;100.00;99521.63;5092751;28;20194;-72
2023/08/03 01:50:48;;;;;;;6.45;1.60;;;;;;;24.32;100.00;99460.84;5092800;28;20593;-72
2023/08/03 01:53:17;;;;;;;7.63;1.77;;;;;;;24.75;100.00;99526.63;5093305;28;20198;-72
2023/08/03 01:55:45;;;;;;;4.50;1.30;;;;;;;24.75;100.00;99529.28;5092869;28;20274;-72
2023/08/03 01:58:14;;;;;;;6.18;1.70;;;;;;;24.80;100.00;99524.59;5093276;28;20648;-72
2023/08/03 02:00:40;;;;;;;11.40;2.17;;;;;;;24.84;100.00;99535.94;5092863;28;20194;-72
2023/08/03 02:03:07;;;;;;;6.75;1.60;;;;;;;24.85;100.00;99535.00;5057435;28;20230;-72
2023/08/03 02:05:34;;;;;;;5.32;1.45;;;;;;;24.84;100.00;99533.28;5074207;28;20197;-72
2023/08/03 02:08:01;;;;;;;6.55;1.50;;;;;;;24.72;100.00;99512.69;5093047;28;20202;-72
2023/08/03 02:10:27;;;;;;;7.07;1.67;;;;;;;24.80;100.00;99532.53;5093032;28;20202;-73
2023/08/03 02:12:54;;;;;;;7.25;1.55;;;;;;;24.63;100.00;99501.59;5092040;28;20187;-73
2023/08/03 02:15:23;;;;;;;5.38;1.67;;;;;;;24.82;100.00;99536.00;5092449;28;20205;-72
2023/08/03 02:17:50;;;;;;;7.03;1.55;;;;;;;24.77;100.00;99532.69;5092243;28;20219;-72
2023/08/03 02:20:16;;;;;;;6.03;1.50;;;;;;;24.68;100.00;99514.63;5092432;28;20705;-72
2023/08/03 02:22:43;;;;;;;4.95;1.40;;;;;;;24.35;100.00;99471.28;5091963;28;20190;-72
2023/08/03 02:25:10;;;;;;;5.80;1.58;;;;;;;24.47;100.00;99494.53;5092417;28;20226;-72
2023/08/03 02:27:37;;;;;;;6.15;1.50;;;;;;;24.74;100.00;99548.78;5092345;28;20198;-73
2023/08/03 02:30:04;;;;;;;4.50;1.48;;;;;;;24.76;100.00;99551.38;5092117;28;20213;-72
2023/08/03 02:32:32;;;;;;;5.60;1.30;;;;;;;24.70;100.00;99547.22;5092123;28;20202;-72
2023/08/03 02:34:59;;;;;;;8.57;1.75;;;;;;;24.56;100.00;99525.84;5092141;28;20537;-71
2023/08/03 02:37:26;;;;;;;6.40;1.65;;;;;;;24.64;100.00;99551.06;5091783;28;20225;-73
2023/08/03 02:39:52;;;;;;;5.30;1.30;;;;;;;24.53;100.00;99552.53;5091955;28;20218;-73
2023/08/03 02:42:19;;;;;;;6.30;1.60;;;;;;;24.41;100.00;99550.47;5091943;28;20243;-72
2023/08/03 02:44:46;;;;;;;5.53;1.67;;;;;;;24.37;100.00;99543.59;5091021;28;20625;-72
2023/08/03 02:47:13;;;;;;;7.90;1.70;;;;;;;24.48;100.00;99560.69;5091850;28;20641;-73
2023/08/03 02:49:41;;;;;;;4.65;1.50;;;;;;;24.52;100.00;99550.78;5091859;28;20238;-73
2023/08/03 02:52:08;;;;;;;7.63;1.65;;;;;;;24.54;100.00;99556.91;5091914;28;20667;-73
2023/08/03 02:54:34;;;;;;;6.53;1.50;;;;;;;24.56;100.00;99561.19;5091040;28;20190;-73
2023/08/03 02:57:01;;;;;;;4.38;1.33;;;;;;;24.57;100.00;99562.91;5090871;28;20190;-73
2023/08/03 02:59:28;;;;;;;5.43;1.30;;;;;;;24.56;100.00;99555.00;5088229;28;20221;-71
2023/08/03 03:01:55;;;;;;;8.15;1.67;;;;;;;24.60;100.00;99565.41;5091149;28;20206;-72
2023/08/03 03:04:21;;;;;;;5.10;1.38;;;;;;;24.63;100.00;99556.41;5091069;28;20603;-72
2023/08/03 03:06:49;;;;;;;6.05;1.48;;;;;;;24.67;100.00;99555.34;5090719;28;20198;-72
2023/08/03 03:09:16;;;;;;;5.57;1.40;;;;;;;24.62;100.00;99566.16;5091031;28;20210;-71
2023/08/03 03:11:43;;;;;;;6.13;1.65;;;;;;;24.68;100.00;99570.31;5090007;28;20209;-71
2023/08/03 03:14:10;;;;;;;7.88;1.80;;;;;;;24.68;100.00;99555.22;5090920;28;20198;-72
2023/08/03 03:16:36;;;;;;;7.50;1.63;;;;;;;24.65;100.00;99558.03;5091229;28;20202;-71
2023/08/03 03:19:03;;;;;;;6.80;1.63;;;;;;;24.65;100.00;99551.88;5090978;28;20275;-71
2023/08/03 03:21:30;;;;;;;8.95;1.85;;;;;;;24.69;100.00;99553.44;5091111;28;20198;-72
2023/08/03 03:23:58;;;;;;;8.73;1.77;;;;;;;24.76;100.00;99557.50;5090964;28;20678;-72
2023/08/03 03:26:25;;;;;;;6.88;1.55;;;;;;;24.56;100.00;99525.84;5091309;28;20197;-72
2023/08/03 03:28:51;;;;;;;9.00;1.85;;;;;;;24.79;100.00;99553.84;5090149;28;20243;-72
2023/08/03 03:31:18;;;;;;;6.32;1.55;;;;;;;24.76;100.00;99543.41;5091014;28;20562;-73
2023/08/03 03:33:45;;;;;;;5.82;1.50;;;;;;;24.74;100.00;99542.63;5091045;28;20213;-71
2023/08/03 03:36:12;;;;;;;9.73;1.90;;;;;;;25.09;100.00;99573.50;5090887;28;20221;-71
2023/08/03 03:38:39;;;;;;;8.63;1.77;;;;;;;25.25;100.00;99577.09;5090756;28;20222;-77
2023/08/03 03:41:07;;;;;;;8.52;1.95;;;;;;;25.44;100.00;99561.88;5090516;28;20208;-71
2023/08/03 03:43:33;;;;;;;8.00;1.65;;;;;;;25.52;100.00;99545.56;5091932;28;20198;-81
2023/08/03 03:46:01;;;;;;;7.60;1.58;;;;;;;25.70;100.00;99543.69;5055922;28;20209;-69
2023/08/03 03:48:28;;;;;;;8.35;1.80;;;;;;;26.26;100.00;99581.25;5090654;28;20233;-70
2023/08/03 03:50:55;;;;;;;7.90;1.77;;;;;;;26.57;100.00;99564.38;5090959;28;20213;-69
2023/08/03 03:53:22;;;;;;;7.55;1.67;;;;;;;27.04;100.00;99567.75;5090638;28;20209;-71
2023/08/03 03:55:49;;;;;;;5.75;1.50;;;;;;;27.30;100.00;99551.97;5090747;28;20198;-71
2023/08/03 03:58:17;;;;;;;8.05;1.70;;;;;;;27.92;100.00;99577.38;5091078;28;20262;-72
2023/08/03 04:00:43;;;;;;;7.32;1.80;;;;;;;27.72;100.00;99500.53;5090441;28;20225;-71
2023/08/03 04:03:10;;;;;;;9.52;1.95;;;;;;;28.27;100.00;99551.09;5090874;28;20608;-71
2023/08/03 04:05:38;;;;;;;5.78;1.63;;;;;;;28.68;100.00;99561.72;5055222;28;20202;-72
2023/08/03 04:08:06;;;;;;;8.23;1.85;;;;;;;29.03;100.00;99560.16;5093891;28;20604;-71
2023/08/03 04:10:35;;;;;;;7.03;1.50;;;;;;;29.54;100.00;99579.72;5091092;28;20660;-71
2023/08/03 04:13:02;;;;;;;7.90;1.75;;;;;;;30.00;98.18;99588.84;5094434;28;20652;-71
2023/08/03 04:15:30;;;;;;;7.32;1.75;;;;;;;30.57;94.20;99596.28;5093080;28;20193;-71
2023/08/03 04:17:56;;;;;;;9.95;1.98;;;;;;;31.11;89.02;99591.22;5094423;28;20206;-71
2023/08/03 04:20:23;;;;;;;6.85;1.50;;;;;;;31.51;83.59;99596.13;5058938;28;20209;-72
2023/08/03 04:22:50;;;;;;;8.57;2.03;;;;;;;31.69;82.91;99592.88;5094022;28;20204;-72
2023/08/03 04:25:17;;;;;;;5.22;1.38;;;;;;;31.69;81.60;99600.94;5075145;28;20292;-71
2023/08/03 04:27:44;;;;;;;8.77;1.85;;;;;;;31.99;81.19;99607.50;5093974;28;20274;-71
2023/08/03 04:30:13;;;;;;;8.73;1.85;;;;;;;32.07;79.20;99616.66;5058317;28;20324;-72
2023/08/03 04:32:41;;;;;;;12.30;2.25;;;;;;;32.34;77.74;99610.88;5079029;28;20628;-71
2023/08/03 04:35:10;;;;;;;4.05;1.20;;;;;;;32.61;75.06;99619.34;5093965;28;20190;-71
2023/08/03 04:37:37;;;;;;;8.50;1.63;;;;;;;32.83;72.54;99616.56;5086587;28;20344;-72
2023/08/03 04:40:04;;;;;;;8.05;1.67;;;;;;;33.32;68.29;99613.25;5090040;28;20616;-73
2023/08/03 04:42:31;;;;;;;11.77;2.08;;;;;;;33.46;67.26;99622.00;5093360;28;20262;-71
2023/08/03 04:44:58;;;;;;;7.95;1.67;;;;;;;33.82;65.22;99622.31;5093829;28;20259;-71
2023/08/03 04:47:24;;;;;;;7.53;1.58;;;;;;;34.19;61.11;99635.22;5079309;28;20197;-71
2023/08/03 04:49:53;;;;;;;8.65;2.05;;;;;;;34.34;59.34;99609.63;5093276;28;20198;-71
2023/08/03 04:52:21;;;;;;;9.65;1.92;;;;;;;34.53;58.82;99636.59;5093778;28;20212;-72
2023/08/03 04:54:48;;;;;;;6.82;1.50;;;;;;;34.36;56.40;99639.94;5093765;28;20202;-71
2023/08/03 04:57:15;;;;;;;11.80;2.15;;;;;;;33.80;57.77;99643.13;5093428;28;20210;-72
2023/08/03 04:59:42;;;;;;;5.78;1.50;;;;;;;33.68;60.26;99636.13;5093734;28;20259;-71
2023/08/03 05:02:09;;;;;;;6.88;1.58;;;;;;;33.89;59.99;99638.75;5093373;28;20200;-71
2023/08/03 05:04:36;;;;;;;5.75;1.40;;;;;;;34.10;58.98;99633.34;5082269;28;20202;-72
2023/08/03 05:07:04;;;;;;;8.05;1.75;;;;;;;34.36;58.58;99635.41;5074742;28;20208;-72
2023/08/03 05:09:31;;;;;;;5.10;1.20;;;;;;;34.41;56.88;99637.69;5058443;28;20216;-78
2023/08/03 05:11:58;;;;;;;7.43;1.60;;;;;;;34.60;56.78;99643.09;5093864;28;20668;-81
2023/08/03 05:14:25;;;;;;;7.90;1.58;;;;;;;34.75;55.67;99644.41;5093848;28;20205;-80
2023/08/03 05:16:51;;;;;;;7.63;1.70;;;;;;;34.72;55.29;99633.91;5094176;28;20217;-80
2023/08/03 05:19:18;;;;;;;6.10;1.33;;;;;;;34.81;54.12;99651.94;5093750;28;20248;-78
2023/08/03 05:21:45;;;;;;;8.95;1.88;;;;;;;34.41;55.44;99659.22;5086504;28;20217;-79
2023/08/03 05:24:13;;;;;;;9.48;1.75;;;;;;;34.00;56.90;99645.91;5080885;28;20226;-79
2023/08/03 05:26:40;;;;;;;8.68;2.15;;;;;;;33.93;57.35;99656.34;5084747;28;20206;-72
2023/08/03 05:29:07;;;;;;;5.75;1.33;;;;;;;34.15;57.01;99652.63;5072816;28;20209;-73
2023/08/03 05:31:33;;;;;;;11.35;2.10;;;;;;;34.42;55.80;99670.84;5072558;28;20217;-72
2023/08/03 05:34:00;;;;;;;9.25;2.00;;;;;;;34.34;56.01;99639.22;5074955;28;20204;-73
2023/08/03 05:36:27;;;;;;;9.13;1.70;;;;;;;34.42;54.43;99652.00;5075231;28;20217;-72
2023/08/03 05:38:54;;;;;;;10.38;2.03;;;;;;;34.63;54.65;99675.19;5088047;28;20202;-72
2023/08/03 05:41:25;;;;;;;6.20;1.75;;;;;;;34.18;56.39;99665.81;5092756;28;20225;-73
2023/08/03 05:43:52;;;;;;;10.38;1.95;;;;;;;33.48;59.39;99676.47;5090010;28;20220;-72
2023/08/03 05:46:19;;;;;;;6.78;1.55;;;;;;;33.01;62.88;99662.53;5092824;28;20193;-73
2023/08/03 05:48:49;;;;;;;6.43;1.50;;;;;;;32.92;65.21;99657.94;5091838;28;20198;-72
2023/08/03 05:51:25;;;;;;;5.45;1.27;;;;;;;32.83;64.68;99659.56;5072633;28;20240;-74
2023/08/03 05:53:52;;;;;;;3.40;1.00;;;;;;;33.01;62.83;99677.78;5072472;28;20684;-76
2023/08/03 05:56:21;;;;;;;7.35;1.67;;;;;;;33.05;63.42;99673.88;5072544;28;20201;-73
2023/08/03 05:58:50;;;;;;;1.60;1.00;;;;;;;33.01;61.50;99673.28;5072271;28;20645;-73
2023/08/03 06:01:20;;;;;;;5.07;1.30;;;;;;;33.05;61.82;99676.56;5072546;28;20229;-73
2023/08/03 06:03:48;;;;;;;4.53;1.23;;;;;;;32.83;64.71;99675.66;5072138;28;20230;-72
2023/08/03 06:06:18;;;;;;;6.00;1.33;;;;;;;32.30;62.59;99677.38;5072264;28;20229;-73
2023/08/03 06:08:48;;;;;;;5.35;1.30;;;;;;;32.24;63.96;99671.66;5072084;28;20193;-71
2023/08/03 06:11:17;;;;;;;11.52;1.98;;;;;;;32.25;63.84;99668.00;5072144;28;20198;-72
2023/08/03 06:13:44;;;;;;;5.35;1.33;;;;;;;31.77;67.04;99662.00;5072119;28;20597;-73
2023/08/03 06:16:13;;;;;;;6.57;1.40;;;;;;;31.44;70.11;99633.28;5072122;28;20194;-74
2023/08/03 06:18:47;;;;;;;2.70;0.93;;;;;;;31.25;71.49;99662.50;5053375;28;20205;-72
2023/08/03 06:21:15;;;;;;;8.30;1.77;;;;;;;30.82;73.83;99668.38;5071661;28;20723;-73
2023/08/03 06:23:45;;;;;;;7.03;1.58;;;;;;;30.16;76.32;99657.28;5036132;28;20237;-73
2023/08/03 06:26:13;;;;;;;8.02;1.67;;;;;;;29.81;78.52;99660.63;5071866;28;20198;-73
2023/08/03 06:28:40;;;;;;;5.30;1.40;;;;;;;29.87;78.97;99670.06;5071566;28;20194;-73
2023/08/03 06:31:15;;;;;;;4.00;1.23;;;;;;;29.94;79.83;99669.50;5071241;28;20194;-72
2023/08/03 06:33:43;;;;;;;10.13;2.05;;;;;;;29.79;80.86;99669.69;5071333;28;20263;-71
2023/08/03 06:36:13;;;;;;;8.38;1.63;;;;;;;29.68;82.84;99654.41;5071479;28;20234;-71
2023/08/03 06:38:41;;;;;;;11.57;2.03;;;;;;;29.82;84.57;99674.84;5071581;28;20202;-72
2023/08/03 06:41:08;;;;;;;9.77;1.85;;;;;;;29.85;84.21;99664.84;5071212;28;20237;-73
2023/08/03 06:43:34;;;;;;;9.40;1.88;;;;;;;29.99;84.15;99658.50;5071361;28;20202;-72
2023/08/03 06:46:01;;;;;;;4.45;1.10;;;;;;;29.79;85.01;99673.22;5071407;28;20198;-71
2023/08/03 06:48:29;;;;;;;9.43;1.83;;;;;;;29.77;82.48;99680.53;5071310;28;20199;-71
2023/08/03 06:50:56;;;;;;;7.78;1.80;;;;;;;29.88;82.23;99669.97;5071157;28;20209;-71
2023/08/03 06:53:23;;;;;;;9.20;1.85;;;;;;;30.14;80.08;99670.78;5036089;28;20264;-72
2023/08/03 06:55:50;;;;;;;4.30;1.42;;;;;;;29.94;80.81;99664.16;5071338;28;20201;-72
2023/08/03 06:58:18;;;;;;;7.50;1.77;;;;;;;29.98;78.70;99646.94;5071352;28;20209;-72
2023/08/03 07:00:45;;;;;;;10.02;2.28;;;;;;;29.98;79.37;99643.41;5071068;28;20264;-72
2023/08/03 07:03:13;;;;;;;4.38;1.35;;;;;;;29.95;77.78;99657.88;5052656;28;20264;-71
2023/08/03 07:05:41;;;;;;;8.63;1.75;;;;;;;30.08;77.80;99640.91;5035986;28;20202;-74
2023/08/03 07:08:08;;;;;;;7.88;2.08;;;;;;;30.04;74.77;99648.31;5071160;28;20684;-73
2023/08/03 07:10:36;;;;;;;5.03;1.92;;;;;;;30.16;75.88;99657.28;5071001;28;20213;-75
2023/08/03 07:13:03;;;;;;;7.78;1.70;;;;;;;30.30;73.78;99654.44;5071033;28;20205;-73
2023/08/03 07:15:33;;;;;;;6.57;1.73;;;;;;;30.38;74.16;99652.06;5071215;28;20229;-75
2023/08/03 07:18:01;;;;;;;6.78;1.65;;;;;;;30.33;74.36;99656.91;5071265;28;20347;-74
2023/08/03 07:20:28;;;;;;;10.27;2.05;;;;;;;30.35;74.41;99652.31;5071364;28;20229;-73
2023/08/03 07:22:56;;;;;;;5.80;1.38;;;;;;;30.27;70.25;99638.63;5071718;28;20209;-74
2023/08/03 07:25:23;;;;;;;7.78;1.65;;;;;;;30.40;72.21;99658.16;5071297;28;20237;-75
2023/08/03 07:27:50;;;;;;;6.40;1.60;;;;;;;30.57;70.56;99647.13;5071187;28;20587;-73
2023/08/03 07:30:17;;;;;;;7.88;1.67;;;;;;;30.66;72.82;99654.44;5071297;28;20301;-74
2023/08/03 07:32:44;;;;;;;4.55;1.30;;;;;;;30.57;65.92;99651.63;5071435;28;20202;-75
2023/08/03 07:35:11;;;;;;;7.32;1.70;;;;;;;30.56;69.02;99661.47;5071392;28;20206;-74
2023/08/03 07:37:37;;;;;;;5.13;1.30;;;;;;;30.53;68.50;99656.34;5071014;28;20259;-75
2023/08/03 07:40:07;;;;;;;8.77;1.88;;;;;;;30.36;66.49;99660.19;5070775;28;20230;-74
2023/08/03 07:42:34;;;;;;;6.57;1.60;;;;;;;30.51;68.94;99663.63;5074853;28;20665;-74
2023/08/03 07:45:01;;;;;;;7.35;1.58;;;;;;;30.65;66.68;99652.72;5039442;28;20672;-74
2023/08/03 07:47:28;;;;;;;6.43;1.38;;;;;;;30.06;62.77;99586.69;5075008;28;20617;-74
2023/08/03 07:49:56;;;;;;;9.13;2.38;;;;;;;30.56;62.73;99661.47;5074761;28;20210;-74
2023/08/03 07:52:22;;;;;;;6.95;1.58;;;;;;;30.76;63.37;99666.19;5074716;28;20226;-74
2023/08/03 07:54:49;;;;;;;8.90;1.90;;;;;;;30.86;66.13;99660.97;5039092;28;20631;-74
2023/08/03 07:57:17;;;;;;;5.13;1.58;;;;;;;30.94;67.09;99666.63;5074812;28;20205;-75
2023/08/03 07:59:48;;;;;;;9.05;2.83;;;;;;;31.14;64.66;99665.16;5074578;28;20225;-74
2023/08/03 08:02:15;;;;;;;5.20;1.38;;;;;;;30.92;61.23;99669.44;5074785;28;20202;-74
2023/08/03 08:04:42;;;;;;;8.88;1.88;;;;;;;30.89;61.25;99661.59;5074360;28;20634;-73
2023/08/03 08:07:09;;;;;;;4.70;1.50;;;;;;;31.20;60.58;99664.69;5074479;28;20205;-75
2023/08/03 08:09:35;;;;;;;5.18;1.40;;;;;;;31.35;60.07;99663.50;5074365;28;20598;-75
2023/08/03 08:12:02;;;;;;;6.88;1.60;;;;;;;31.43;59.34;99663.75;5074162;28;20669;-74
2023/08/03 08:14:30;;;;;;;11.07;2.15;;;;;;;31.36;56.54;99654.47;5074247;28;20199;-74
2023/08/03 08:16:57;;;;;;;7.70;1.73;;;;;;;31.62;57.92;99661.38;5038841;28;20637;-74
2023/08/03 08:19:24;;;;;;;8.98;1.88;;;;;;;31.54;55.73;99669.16;5074029;28;20201;-73
2023/08/03 08:21:51;;;;;;;10.38;2.05;;;;;;;31.62;57.17;99647.13;5073870;28;20225;-73
2023/08/03 08:24:18;;;;;;;8.63;1.90;;;;;;;31.65;55.51;99657.59;5073946;28;20229;-74
2023/08/03 08:26:45;;;;;;;8.68;2.05;;;;;;;31.59;55.00;99658.09;5073865;28;20202;-75
2023/08/03 08:29:12;;;;;;;6.90;1.63;;;;;;;31.44;55.10;99660.09;5074221;28;20233;-74
2023/08/03 08:31:40;;;;;;;5.47;1.42;;;;;;;31.61;55.96;99654.31;5074118;28;20275;-74
2023/08/03 08:34:07;;;;;;;8.43;1.85;;;;;;;31.70;55.51;99650.06;5074049;28;20202;-74
2023/08/03 08:36:34;;;;;;;4.38;1.45;;;;;;;31.67;55.21;99653.84;5073783;28;20203;-75
2023/08/03 08:39:00;;;;;;;8.93;1.92;;;;;;;31.60;55.14;99633.84;5073660;28;20197;-73
2023/08/03 08:41:27;;;;;;;5.60;1.45;;;;;;;31.75;55.86;99631.78;5089190;28;20222;-74
2023/08/03 08:43:54;;;;;;;10.25;2.08;;;;;;;31.85;53.26;99627.38;5093649;28;20205;-73
2023/08/03 08:46:21;;;;;;;6.32;1.52;;;;;;;31.94;53.95;99651.63;5093820;28;20254;-75
2023/08/03 08:48:49;;;;;;;8.70;1.88;;;;;;;31.98;54.41;99648.69;5084569;28;20251;-75
2023/08/03 08:51:18;;;;;;;8.30;1.80;;;;;;;32.03;53.65;99658.09;5074454;28;20845;-75
2023/08/03 08:53:45;;;;;;;7.57;1.75;;;;;;;31.48;54.35;99549.84;5092704;28;20285;-74
2023/08/03 08:56:14;;;;;;;7.20;1.70;;;;;;;31.99;54.98;99647.75;5093523;28;20680;-73
2023/08/03 08:58:40;;;;;;;10.15;2.13;;;;;;;32.25;54.75;99651.91;5093340;28;20696;-73
2023/08/03 09:01:07;;;;;;;6.97;1.88;;;;;;;31.93;54.23;99582.00;5093519;28;20240;-72
2023/08/03 09:03:51;;;;;;;15.25;2.63;;;;;;;32.47;54.03;99646.44;5093043;28;20204;-72
2023/08/03 09:06:19;;;;;;;5.88;1.80;;;;;;;32.15;54.49;99579.31;5093220;28;20225;-72
2023/08/03 09:08:51;;;;;;;9.30;2.35;;;;;;;32.61;55.40;99646.19;5093290;28;20657;-73
2023/08/03 09:11:18;;;;;;;9.48;1.90;;;;;;;32.67;53.09;99642.16;5093182;28;20699;-71
2023/08/03 09:13:49;;;;;;;10.07;2.05;;;;;;;32.62;53.61;99645.22;5074993;28;20190;-71
2023/08/03 09:16:24;;;;;;;10.13;2.00;;;;;;;32.41;53.26;99614.75;5083155;28;20206;-71
2023/08/03 09:18:52;;;;;;;8.40;1.80;;;;;;;32.61;53.92;99639.97;5092900;28;20205;-72
2023/08/03 09:21:20;;;;;;;12.73;2.47;;;;;;;32.51;53.73;99637.16;5093036;28;20218;-72
2023/08/03 09:23:50;;;;;;;12.25;2.40;;;;;;;32.51;52.77;99642.53;5092771;28;20259;-72
2023/08/03 09:26:23;;;;;;;10.10;2.03;;;;;;;32.62;53.17;99606.78;5093307;28;20213;-71
2023/08/03 09:28:49;;;;;;;8.35;1.75;;;;;;;32.95;51.72;99640.69;5091377;28;20206;-70
2023/08/03 09:31:23;;;;;;;9.25;1.98;;;;;;;33.07;51.34;99628.94;5080589;28;20217;-71
2023/08/03 09:34:01;;;;;;;8.30;1.80;;;;;;;33.28;51.42;99635.19;5066950;28;20212;-70
2023/08/03 09:36:28;;;;;;;6.03;1.52;;;;;;;33.42;51.54;99634.00;5078770;28;20210;-71
2023/08/03 09:39:11;;;;;;;8.95;2.03;;;;;;;33.34;50.25;99632.81;5072919;28;20198;-72
2023/08/03 09:41:38;;;;;;;7.10;1.55;;;;;;;33.43;50.60;99625.78;5072657;28;20230;-73
2023/08/03 09:44:07;;;;;;;7.22;1.77;;;;;;;33.23;51.13;99594.41;5072802;28;20285;-73
2023/08/03 09:46:34;;;;;;;8.38;1.90;;;;;;;33.45;50.60;99623.81;5072771;28;20206;-72
2023/08/03 09:49:03;;;;;;;8.43;1.85;;;;;;;33.52;50.42;99625.00;5072410;28;20213;-70
2023/08/03 09:51:31;;;;;;;5.85;1.50;;;;;;;33.47;51.51;99616.47;5075131;28;20197;-72
2023/08/03 09:54:07;;;;;;;7.93;1.70;;;;;;;33.68;50.90;99609.22;5070565;28;20217;-71
2023/08/03 09:56:37;;;;;;;7.50;1.73;;;;;;;33.66;50.17;99621.13;5078249;28;20197;-71
2023/08/03 09:59:09;;;;;;;5.15;1.33;;;;;;;33.57;50.40;99625.41;5092069;28;20190;-72
2023/08/03 10:01:40;;;;;;;5.28;1.95;;;;;;;33.59;49.98;99607.34;5092159;28;20221;-72
2023/08/03 10:04:15;;;;;;;5.72;1.55;;;;;;;33.85;49.22;99622.03;5090663;28;20672;-70
2023/08/03 10:06:44;;;;;;;6.72;1.60;;;;;;;33.92;48.90;99611.59;5091934;28;20278;-71
2023/08/03 10:09:14;;;;;;;6.25;1.58;;;;;;;33.69;48.88;99591.25;5056505;28;20259;-73
2023/08/03 10:11:46;;;;;;;4.55;1.40;;;;;;;33.44;47.50;99557.59;5090617;28;20214;-73
2023/08/03 10:14:17;;;;;;;4.88;1.23;;;;;;;33.81;47.51;99606.31;5091871;28;20252;-72
2023/08/03 10:16:44;;;;;;;4.70;1.30;;;;;;;33.81;47.68;99603.63;5091797;28;20201;-72
2023/08/03 10:19:13;;;;;;;5.47;1.63;;;;;;;33.92;47.45;99594.59;5092107;28;20208;-72
2023/08/03 10:21:40;;;;;;;8.65;1.80;;;;;;;33.96;47.45;99598.72;5091680;28;20232;-70
2023/08/03 10:24:14;;;;;;;5.40;1.38;;;;;;;33.95;46.69;99599.72;5091592;28;20244;-71
2023/08/03 10:26:42;;;;;;;6.68;1.65;;;;;;;34.03;46.87;99589.13;5056763;28;20228;-73
2023/08/03 10:29:10;;;;;;;6.57;1.67;;;;;;;34.25;47.51;99592.44;5092002;28;20208;-71
2023/08/03 10:31:53;;;;;;;7.10;1.98;;;;;;;34.27;45.56;99562.69;5052644;28;20198;-71
2023/08/03 10:34:27;;;;;;;7.75;1.75;;;;;;;34.53;45.87;99580.03;5071125;28;20695;-72
2023/08/03 10:36:56;;;;;;;7.32;1.67;;;;;;;34.33;45.15;99564.81;5084231;28;20201;-73
2023/08/03 10:39:52;;;;;;;7.45;1.83;;;;;;;34.69;45.47;99585.72;5091433;28;20293;-71
2023/08/03 10:42:24;;;;;;;6.50;1.63;;;;;;;34.64;44.57;99587.16;5091156;28;20225;-71
2023/08/03 10:44:51;;;;;;;7.40;1.73;;;;;;;34.76;44.54;99581.44;5091186;28;20209;-70
2023/08/03 10:47:26;;;;;;;7.72;1.85;;;;;;;34.75;45.29;99568.13;5091495;28;20573;-71
2023/08/03 10:49:57;;;;;;;7.10;1.60;;;;;;;34.93;43.74;99573.63;5091373;28;20201;-71
2023/08/03 10:52:29;;;;;;;7.05;1.73;;;;;;;34.97;43.12;99580.44;5090935;28;20304;-72
2023/08/03 10:54:58;;;;;;;6.95;1.52;;;;;;;35.02;44.08;99570.06;5091007;28;20194;-72
2023/08/03 10:57:27;;;;;;;7.82;1.67;;;;;;;34.94;42.84;99565.41;5051829;28;20197;-71
2023/08/03 10:59:55;;;;;;;6.45;1.52;;;;;;;35.05;43.87;99564.38;5088782;28;20194;-72
2023/08/03 11:02:28;;;;;;;9.43;1.80;;;;;;;35.02;42.94;99576.31;5090458;28;20244;-70
2023/08/03 11:04:57;;;;;;;7.60;1.60;;;;;;;34.96;42.86;99570.66;5090663;28;20281;-71
2023/08/03 11:07:26;;;;;;;8.25;1.83;;;;;;;34.85;41.82;99569.81;5091133;28;20198;-69
2023/08/03 11:09:54;;;;;;;8.32;1.70;;;;;;;35.05;42.19;99559.84;5006588;28;20190;-70
2023/08/03 11:12:22;;;;;;;7.60;1.80;;;;;;;35.24;41.60;99559.00;5090716;28;20610;-72
2023/08/03 11:14:51;;;;;;;3.97;1.20;;;;;;;35.14;41.57;99550.09;5090777;28;20227;-71
2023/08/03 11:17:24;;;;;;;8.45;2.05;;;;;;;35.16;42.73;99548.09;5090774;28;20565;-71
2023/08/03 11:19:52;;;;;;;6.80;1.52;;;;;;;35.10;42.48;99548.66;5091013;28;20205;-71
2023/08/03 11:22:21;;;;;;;13.80;2.47;;;;;;;35.11;42.61;99543.09;5090876;28;20255;-71
2023/08/03 11:24:48;;;;;;;5.00;1.17;;;;;;;35.13;42.56;99546.53;5090513;28;20265;-71
2023/08/03 11:27:18;;;;;;;10.98;1.80;;;;;;;35.27;42.95;99545.22;5090896;28;20197;-71
2023/08/03 11:29:45;;;;;;;8.02;2.40;;;;;;;35.37;42.37;99537.94;5090824;28;20678;-73
2023/08/03 11:32:13;;;;;;;7.63;1.65;;;;;;;35.44;42.86;99522.00;5090521;28;20208;-72